Smithfield, Missouri
Current Conditions -  °F | °C
As of 10:53 PM on Monday 22 Dec 2014 (Local Time) from KJLN Reporting Station
Clear Clear  
Wind Chill: 36°   Ceiling: Unl
Heat Index: 41°   Visibility: 10mi
Dew Point: 39°   Wind: 7mph
Humidity: 93%   Direction: 260°W
Pressure: 29.64"   Gusts: NA
Location:  37.2082°N, 94.5634°W
Report Text: KJLN 230453Z AUTO 26006KT 10SM CLR 05/04 A2964 RMK AO2 SLP038 T00500039
Loading
Personal Weather Stations






























Interactive Weather Map New forecast layout! Learn more

10-Day Weather Forecast

Advertisements
Track Severe Weather on mobile